createdAt,value
2019-01-31T00:01:08.989Z,25.84
2019-01-31T00:03:54.754Z,25.84
2019-01-31T00:06:17.939Z,25.96
2019-01-31T00:08:46.375Z,25.93
2019-01-31T00:11:05.073Z,25.82
2019-01-31T00:13:33.528Z,25.61
2019-01-31T00:16:07.510Z,25.44
2019-01-31T00:18:39.081Z,25.33
2019-01-31T00:21:11.883Z,25.18
2019-01-31T00:24:07.250Z,25.03
2019-01-31T00:26:54.900Z,24.87
2019-01-31T00:29:19.956Z,24.75
2019-01-31T00:32:06.059Z,24.58
2019-01-31T00:35:10.780Z,24.66
2019-01-31T00:37:45.077Z,24.59
2019-01-31T00:40:25.505Z,24.28
2019-01-31T00:43:15.661Z,24.24
2019-01-31T00:46:21.714Z,24.20
2019-01-31T00:48:52.421Z,24.18
2019-01-31T00:51:36.283Z,24.02
2019-01-31T00:54:07.811Z,23.79
2019-01-31T00:56:46.570Z,23.55
2019-01-31T00:59:49.570Z,23.34
2019-01-31T01:02:40.319Z,23.18
2019-01-31T01:05:28.931Z,23.06
2019-01-31T01:08:11.708Z,23.09
2019-01-31T01:11:01.858Z,23.08
2019-01-31T01:13:38.920Z,23.01
2019-01-31T01:16:00.552Z,22.93
2019-01-31T01:18:14.590Z,22.86
2019-01-31T01:21:08.233Z,22.83
2019-01-31T01:23:40.922Z,22.76
2019-01-31T01:26:42.887Z,22.69
2019-01-31T01:29:10.679Z,22.64
2019-01-31T01:31:49.361Z,22.57
2019-01-31T01:34:31.055Z,22.48
2019-01-31T01:36:53.506Z,22.38
2019-01-31T01:39:32.681Z,22.28
2019-01-31T01:41:54.868Z,22.22
2019-01-31T01:44:24.236Z,22.16
2019-01-31T01:47:11.554Z,22.12
2019-01-31T01:49:40.609Z,22.06
2019-01-31T01:52:23.695Z,22.17
2019-01-31T01:55:17.915Z,22.43
2019-01-31T01:58:03.509Z,22.62
2019-01-31T02:01:12.312Z,22.90
2019-01-31T02:03:52.696Z,23.09
2019-01-31T02:06:37.952Z,23.18
2019-01-31T02:09:34.073Z,23.21
2019-01-31T02:12:24.976Z,23.18
2019-01-31T02:15:02.162Z,22.95
2019-01-31T02:17:29.975Z,22.75
2019-01-31T02:20:02.808Z,22.60
2019-01-31T02:22:21.927Z,22.48
2019-01-31T02:25:01.422Z,22.31
2019-01-31T02:28:08.027Z,22.33
2019-01-31T02:30:58.816Z,22.50
2019-01-31T02:33:42.568Z,22.67
2019-01-31T02:36:39.285Z,22.83
2019-01-31T02:39:13.204Z,22.87
2019-01-31T02:41:33.203Z,22.98
2019-01-31T02:44:04.991Z,22.96
2019-01-31T02:46:39.387Z,23.03
2019-01-31T02:48:59.392Z,23.08
2019-01-31T02:51:38.018Z,23.13
2019-01-31T02:54:16.341Z,23.11
2019-01-31T02:57:03.558Z,22.87
2019-01-31T02:59:40.930Z,22.67
2019-01-31T03:02:07.618Z,22.44
2019-01-31T03:04:28.105Z,22.35
2019-01-31T03:07:29.677Z,22.37
2019-01-31T03:10:09.518Z,22.56
2019-01-31T03:12:41.690Z,22.65
2019-01-31T03:14:54.301Z,22.77
2019-01-31T03:17:53.725Z,22.84
2019-01-31T03:20:32.486Z,22.91
2019-01-31T03:23:31.221Z,22.99
2019-01-31T03:25:56.180Z,23.06
2019-01-31T03:28:48.771Z,22.92
2019-01-31T03:31:33.002Z,22.68
2019-01-31T03:34:31.690Z,22.48
2019-01-31T03:37:11.986Z,22.30
2019-01-31T03:40:06.833Z,22.18
2019-01-31T03:42:52.428Z,22.30
2019-01-31T03:45:11.737Z,22.42
2019-01-31T03:47:57.247Z,22.52
2019-01-31T03:50:17.071Z,22.53
2019-01-31T03:52:52.308Z,22.66
2019-01-31T03:55:18.877Z,22.76
2019-01-31T03:57:43.992Z,22.94
2019-01-31T04:00:07.810Z,23.07
2019-01-31T04:03:07.241Z,23.17
2019-01-31T04:05:39.462Z,23.30
2019-01-31T04:07:46.662Z,23.36
2019-01-31T04:09:55.914Z,23.22
2019-01-31T04:12:02.877Z,23.11
2019-01-31T04:14:10.575Z,23.00
2019-01-31T04:16:17.979Z,22.89
2019-01-31T04:18:25.084Z,22.84
2019-01-31T04:20:32.475Z,22.86
2019-01-31T04:22:40.459Z,22.94
2019-01-31T04:24:47.491Z,22.95
2019-01-31T04:26:54.758Z,23.01
2019-01-31T04:29:02.108Z,23.09
2019-01-31T04:31:09.985Z,23.12
2019-01-31T04:33:17.200Z,23.16
2019-01-31T04:35:24.537Z,23.23
2019-01-31T04:37:32.238Z,23.19
2019-01-31T04:39:40.828Z,23.24
2019-01-31T04:41:48.739Z,23.28
2019-01-31T04:43:56.751Z,23.33
2019-01-31T04:46:04.369Z,23.29
2019-01-31T04:48:12.472Z,23.30
2019-01-31T04:50:19.642Z,23.36
2019-01-31T04:52:26.956Z,23.40
2019-01-31T04:54:34.410Z,23.34
2019-01-31T04:56:41.730Z,23.28
2019-01-31T04:58:48.996Z,23.17
2019-01-31T05:00:56.242Z,23.00
2019-01-31T05:03:04.260Z,22.90
2019-01-31T05:05:11.786Z,22.93
2019-01-31T05:07:19.421Z,22.98
2019-01-31T05:09:27.100Z,22.99
2019-01-31T05:11:34.214Z,23.03
2019-01-31T05:13:42.084Z,23.09
2019-01-31T05:15:49.970Z,23.16
2019-01-31T05:17:57.839Z,23.21
2019-01-31T05:20:05.930Z,23.28
2019-01-31T05:22:13.840Z,23.23
2019-01-31T05:24:20.987Z,23.25
2019-01-31T05:26:28.203Z,23.31
2019-01-31T05:28:35.514Z,23.36
2019-01-31T05:30:42.892Z,23.41
2019-01-31T05:32:50.408Z,23.35
2019-01-31T05:34:58.237Z,23.33
2019-01-31T05:37:05.425Z,23.38
2019-01-31T05:39:12.931Z,23.35
2019-01-31T05:41:21.204Z,23.35
2019-01-31T05:43:28.264Z,23.36
2019-01-31T05:45:35.704Z,23.29
2019-01-31T05:47:43.846Z,23.19
2019-01-31T05:49:51.818Z,23.03
2019-01-31T05:51:59.156Z,22.83
2019-01-31T05:54:06.429Z,22.72
2019-01-31T05:56:13.898Z,22.80
2019-01-31T05:58:21.334Z,22.84
2019-01-31T06:00:32.390Z,22.87
2019-01-31T06:02:39.687Z,22.88
2019-01-31T06:04:46.756Z,22.96
2019-01-31T06:06:54.223Z,23.04
2019-01-31T06:09:02.189Z,23.03
2019-01-31T06:11:09.638Z,22.97
2019-01-31T06:13:16.968Z,22.89
2019-01-31T06:15:24.238Z,22.78
2019-01-31T06:17:31.596Z,22.66
2019-01-31T06:19:39.666Z,22.52
2019-01-31T06:21:46.946Z,22.41
2019-01-31T06:23:54.240Z,22.26
2019-01-31T06:26:01.686Z,22.13
2019-01-31T06:28:09.087Z,22.02
2019-01-31T06:30:17.562Z,21.90
2019-01-31T06:32:24.806Z,21.84
2019-01-31T06:34:33.094Z,21.88
2019-01-31T06:36:40.668Z,21.96
2019-01-31T06:38:48.293Z,22.05
2019-01-31T06:40:55.468Z,22.22
2019-01-31T06:43:02.811Z,22.31
2019-01-31T06:45:12.485Z,22.37
2019-01-31T06:47:19.459Z,22.44
2019-01-31T06:49:26.776Z,22.54
2019-01-31T06:51:34.073Z,22.59
2019-01-31T06:53:41.890Z,22.63
2019-01-31T06:55:48.994Z,22.63
2019-01-31T06:57:56.970Z,22.67
2019-01-31T07:00:04.283Z,22.50
2019-01-31T07:02:11.648Z,22.40
2019-01-31T07:04:19.025Z,22.29
2019-01-31T07:06:26.649Z,22.16
2019-01-31T07:08:34.155Z,22.03
2019-01-31T07:10:41.336Z,22.12
2019-01-31T07:12:49.358Z,22.14
2019-01-31T07:14:57.454Z,22.17
2019-01-31T07:18:06.783Z,22.21
2019-01-31T07:20:15.709Z,22.23
2019-01-31T07:22:23.212Z,22.34
2019-01-31T07:24:31.342Z,22.43
2019-01-31T07:26:41.460Z,22.51
2019-01-31T07:28:47.751Z,22.60
2019-01-31T07:30:54.941Z,22.66
2019-01-31T07:33:02.231Z,22.67
2019-01-31T07:35:10.627Z,22.67
2019-01-31T07:37:18.471Z,22.50
2019-01-31T07:39:25.522Z,22.42
2019-01-31T07:41:41.027Z,22.35
2019-01-31T07:43:42.183Z,22.14
2019-01-31T07:45:51.464Z,22.02
2019-01-31T07:47:59.053Z,21.88
2019-01-31T07:50:06.562Z,21.85
2019-01-31T07:52:13.724Z,21.95
2019-01-31T07:54:21.064Z,21.99
2019-01-31T07:56:28.336Z,22.02
2019-01-31T07:58:36.760Z,22.09
2019-01-31T08:00:44.643Z,22.16
2019-01-31T08:02:52.111Z,22.24
2019-01-31T08:04:59.330Z,22.32
2019-01-31T08:07:06.643Z,22.42
2019-01-31T08:09:13.977Z,22.47
2019-01-31T08:11:21.496Z,22.50
2019-01-31T08:13:29.136Z,22.56
2019-01-31T08:15:36.457Z,22.53
2019-01-31T08:17:43.980Z,22.46
2019-01-31T08:19:56.503Z,22.36
2019-01-31T08:22:07.018Z,21.98
2019-01-31T08:24:15.351Z,22.05
2019-01-31T08:26:22.644Z,21.93
2019-01-31T08:28:30.266Z,21.78
2019-01-31T08:30:39.669Z,21.79
2019-01-31T08:32:47.323Z,21.88
2019-01-31T08:34:54.655Z,21.98
2019-01-31T08:37:02.030Z,22.01
2019-01-31T08:39:10.938Z,22.10
2019-01-31T08:41:18.282Z,22.16
2019-01-31T08:43:25.617Z,22.23
2019-01-31T08:45:33.142Z,22.35
2019-01-31T08:47:41.060Z,22.41
2019-01-31T08:49:48.133Z,22.44
2019-01-31T08:51:55.413Z,22.47
2019-01-31T08:54:09.434Z,22.49
2019-01-31T08:56:16.893Z,22.49
2019-01-31T08:58:24.744Z,22.46
2019-01-31T09:00:32.620Z,22.33
2019-01-31T09:02:39.759Z,22.24
2019-01-31T09:04:46.652Z,22.11
2019-01-31T09:06:53.907Z,21.93
2019-01-31T09:09:01.540Z,21.81
2019-01-31T09:11:09.877Z,21.89
2019-01-31T09:13:17.503Z,21.91
2019-01-31T09:15:25.932Z,21.95
2019-01-31T09:17:33.257Z,22.01
2019-01-31T09:19:40.599Z,22.09
2019-01-31T09:22:15.971Z,22.15
2019-01-31T09:25:00.842Z,22.23
2019-01-31T09:27:51.005Z,22.29
2019-01-31T09:31:00.109Z,22.37
2019-01-31T09:33:47.864Z,22.32
2019-01-31T09:36:24.185Z,22.35
2019-01-31T09:39:19.456Z,22.39
2019-01-31T09:41:57.593Z,22.40
2019-01-31T09:44:28.286Z,22.37
2019-01-31T09:47:10.743Z,22.40
2019-01-31T09:49:51.852Z,22.39
2019-01-31T09:52:40.916Z,22.38
2019-01-31T09:55:17.910Z,22.45
2019-01-31T09:58:04.112Z,22.56
2019-01-31T10:00:51.072Z,22.50
2019-01-31T10:03:26.692Z,22.35
2019-01-31T10:05:59.181Z,22.19
2019-01-31T10:08:40.996Z,22.00
2019-01-31T10:11:26.310Z,21.79
2019-01-31T10:13:56.589Z,21.62
2019-01-31T10:16:39.429Z,21.47
2019-01-31T10:19:32.523Z,21.41
2019-01-31T10:22:14.754Z,21.55
2019-01-31T10:24:44.404Z,21.66
2019-01-31T10:27:31.678Z,21.68
2019-01-31T10:30:15.104Z,21.76
2019-01-31T10:33:16.679Z,21.92
2019-01-31T10:35:42.473Z,22.06
2019-01-31T10:38:10.157Z,22.15
2019-01-31T10:40:45.552Z,22.23
2019-01-31T10:43:24.743Z,22.25
2019-01-31T10:45:45.403Z,22.29
2019-01-31T10:48:47.636Z,22.20
2019-01-31T10:51:38.962Z,22.02
2019-01-31T10:54:13.486Z,21.90
2019-01-31T10:56:47.369Z,21.67
2019-01-31T10:59:19.130Z,21.51
2019-01-31T11:02:02.128Z,21.57
2019-01-31T11:04:30.795Z,21.00
2019-01-31T11:07:07.245Z,21.71
2019-01-31T11:09:31.034Z,21.75
2019-01-31T11:12:24.153Z,21.86
2019-01-31T11:15:10.058Z,21.97
2019-01-31T11:17:45.411Z,22.12
2019-01-31T11:20:06.934Z,22.18
2019-01-31T11:22:55.946Z,22.18
2019-01-31T11:25:14.765Z,22.24
2019-01-31T11:28:00.341Z,22.22
2019-01-31T11:30:31.942Z,22.30
2019-01-31T11:33:16.033Z,22.30
2019-01-31T11:36:02.082Z,22.17
2019-01-31T11:38:37.154Z,22.02
2019-01-31T11:41:25.937Z,21.90
2019-01-31T11:43:58.731Z,21.68
2019-01-31T11:46:26.864Z,21.49
2019-01-31T11:49:04.831Z,21.51
2019-01-31T11:51:45.444Z,21.59
2019-01-31T11:54:19.318Z,21.74
2019-01-31T11:56:36.498Z,21.81
2019-01-31T11:59:00.824Z,21.89
2019-01-31T12:01:10.178Z,21.89
2019-01-31T12:03:17.444Z,21.98
2019-01-31T12:05:25.013Z,22.02
2019-01-31T12:07:32.308Z,22.10
2019-01-31T12:09:40.659Z,22.17
2019-01-31T12:11:47.959Z,22.30
2019-01-31T12:13:55.325Z,22.32
2019-01-31T12:16:03.618Z,22.41
2019-01-31T12:18:11.427Z,22.49
2019-01-31T12:20:19.249Z,22.52
2019-01-31T12:22:26.713Z,22.64
2019-01-31T12:24:34.299Z,22.70
2019-01-31T12:26:41.753Z,22.61
2019-01-31T12:28:51.054Z,22.43
2019-01-31T12:30:58.794Z,22.28
2019-01-31T12:33:06.097Z,22.27
2019-01-31T12:35:13.764Z,22.26
2019-01-31T12:37:21.119Z,22.25
2019-01-31T12:39:30.404Z,22.21
2019-01-31T12:41:38.485Z,22.33
2019-01-31T12:43:46.176Z,22.41
2019-01-31T12:45:58.975Z,22.45
2019-01-31T12:48:06.895Z,22.55
2019-01-31T12:50:18.546Z,22.62
2019-01-31T12:52:25.947Z,22.66
2019-01-31T12:54:33.385Z,22.69
2019-01-31T12:56:40.614Z,22.76
2019-01-31T12:58:48.194Z,22.73
2019-01-31T13:00:55.445Z,22.78
2019-01-31T13:03:03.343Z,22.80
2019-01-31T13:05:11.813Z,22.84
2019-01-31T13:07:19.277Z,22.84
2019-01-31T13:09:28.406Z,22.96
2019-01-31T13:11:35.970Z,22.98
2019-01-31T13:13:46.088Z,23.03
2019-01-31T13:15:52.034Z,23.06
2019-01-31T13:18:00.650Z,23.12
2019-01-31T13:20:12.335Z,23.16
2019-01-31T13:22:19.667Z,23.24
2019-01-31T13:24:27.057Z,23.27
2019-01-31T13:26:34.666Z,23.25
2019-01-31T13:28:42.803Z,23.29
2019-01-31T13:30:54.228Z,23.22
2019-01-31T13:33:03.066Z,23.26
2019-01-31T13:35:20.939Z,23.26
2019-01-31T13:37:30.916Z,23.31
2019-01-31T13:39:39.025Z,23.38
2019-01-31T13:41:46.464Z,23.40
2019-01-31T13:43:57.634Z,23.44
2019-01-31T13:46:02.836Z,23.51
2019-01-31T13:48:15.374Z,23.57
2019-01-31T13:50:22.835Z,23.66
2019-01-31T13:52:31.058Z,23.75
2019-01-31T13:54:40.770Z,23.76
2019-01-31T13:56:48.322Z,23.85
2019-01-31T13:58:55.837Z,23.87
2019-01-31T14:01:05.939Z,23.90
2019-01-31T14:03:14.917Z,23.89
2019-01-31T14:05:22.410Z,23.95
2019-01-31T14:07:29.616Z,24.09
2019-01-31T14:09:37.896Z,24.13
2019-01-31T14:11:46.683Z,24.22
2019-01-31T14:13:53.955Z,24.27
2019-01-31T14:16:06.621Z,24.26
2019-01-31T14:18:15.185Z,24.38
2019-01-31T14:20:24.519Z,24.48
2019-01-31T14:22:42.612Z,24.52
2019-01-31T14:24:43.688Z,24.51
2019-01-31T14:26:50.591Z,24.56
2019-01-31T14:28:57.943Z,24.59
2019-01-31T14:31:06.511Z,24.66
2019-01-31T14:33:20.918Z,24.57
2019-01-31T14:35:28.232Z,24.61
2019-01-31T14:37:35.375Z,24.60
2019-01-31T14:39:42.878Z,24.73
2019-01-31T14:41:50.210Z,24.80
2019-01-31T14:43:57.612Z,24.91
2019-01-31T14:46:08.843Z,24.99
2019-01-31T14:48:16.313Z,25.03
2019-01-31T14:50:29.498Z,25.14
2019-01-31T14:52:41.540Z,25.22
2019-01-31T14:54:50.444Z,25.36
2019-01-31T14:56:59.785Z,25.37
2019-01-31T14:59:07.073Z,25.40
2019-01-31T15:01:14.312Z,25.50
2019-01-31T15:03:21.866Z,25.51
2019-01-31T15:05:41.385Z,25.49
2019-01-31T15:07:47.743Z,25.51
2019-01-31T15:09:55.316Z,25.53
2019-01-31T15:12:03.499Z,25.64
2019-01-31T15:14:11.506Z,25.70
2019-01-31T15:16:18.648Z,25.73
2019-01-31T15:18:26.054Z,25.82
2019-01-31T15:20:44.669Z,25.95
2019-01-31T15:22:51.893Z,26.06
2019-01-31T15:25:00.341Z,26.14
2019-01-31T15:27:08.022Z,26.21
2019-01-31T15:29:15.560Z,26.29
2019-01-31T15:31:23.337Z,26.32
2019-01-31T15:33:31.635Z,26.31
2019-01-31T15:35:38.983Z,26.32
2019-01-31T15:37:46.413Z,26.29
2019-01-31T15:39:53.767Z,26.44
2019-01-31T15:42:01.164Z,26.44
2019-01-31T15:44:08.564Z,26.46
2019-01-31T15:46:17.857Z,26.47
2019-01-31T15:48:25.032Z,26.49
2019-01-31T15:50:32.620Z,26.64
2019-01-31T15:52:40.240Z,26.64
2019-01-31T15:54:47.618Z,26.71
2019-01-31T15:56:55.480Z,26.80
2019-01-31T15:59:02.798Z,26.89
2019-01-31T16:01:11.939Z,26.93
2019-01-31T16:03:26.150Z,27.00
2019-01-31T16:05:41.198Z,26.97
2019-01-31T16:07:47.917Z,26.86
2019-01-31T16:09:55.181Z,26.87
2019-01-31T16:12:02.628Z,26.78
2019-01-31T16:14:10.127Z,26.69
2019-01-31T16:16:20.017Z,26.53
2019-01-31T16:18:26.318Z,26.48
2019-01-31T16:20:33.640Z,26.50
2019-01-31T16:22:40.735Z,26.61
2019-01-31T16:24:48.038Z,26.69
2019-01-31T16:26:56.650Z,26.76
2019-01-31T16:29:20.849Z,26.83
2019-01-31T16:31:29.505Z,26.90
2019-01-31T16:33:37.065Z,26.99
2019-01-31T16:35:49.667Z,27.01
2019-01-31T16:37:57.803Z,27.09
2019-01-31T16:40:06.939Z,27.10
2019-01-31T16:42:14.655Z,27.02
2019-01-31T16:44:21.988Z,26.98
2019-01-31T16:46:29.420Z,26.83
2019-01-31T16:48:37.570Z,26.70
2019-01-31T16:50:46.136Z,26.61
2019-01-31T16:52:53.880Z,26.47
2019-01-31T16:55:02.154Z,26.59
2019-01-31T16:57:09.542Z,26.65
2019-01-31T16:59:17.040Z,26.77
2019-01-31T17:01:24.673Z,26.92
2019-01-31T17:03:31.703Z,27.02
2019-01-31T17:05:38.902Z,27.13
2019-01-31T17:07:46.910Z,27.23
2019-01-31T17:09:55.505Z,27.06
2019-01-31T17:12:03.628Z,27.15
2019-01-31T17:14:11.113Z,27.11
2019-01-31T17:16:18.363Z,26.99
2019-01-31T17:18:25.603Z,26.80
2019-01-31T17:20:41.738Z,26.71
2019-01-31T17:22:49.017Z,26.58
2019-01-31T17:25:15.827Z,26.55
2019-01-31T17:27:28.477Z,26.64
2019-01-31T17:29:35.651Z,26.67
2019-01-31T17:31:42.945Z,26.81
2019-01-31T17:33:50.535Z,26.91
2019-01-31T17:35:58.562Z,27.02
2019-01-31T17:38:05.990Z,27.15
2019-01-31T17:40:24.942Z,27.23
2019-01-31T17:42:32.301Z,27.28
2019-01-31T17:44:40.134Z,27.27
2019-01-31T17:46:47.725Z,27.19
2019-01-31T17:48:58.963Z,27.10
2019-01-31T17:51:07.157Z,27.15
2019-01-31T17:53:14.314Z,27.21
2019-01-31T17:55:22.930Z,27.25
2019-01-31T17:57:33.570Z,27.22
2019-01-31T17:59:41.072Z,27.10
2019-01-31T18:01:48.356Z,26.94
2019-01-31T18:03:55.688Z,26.78
2019-01-31T18:06:03.079Z,26.63
2019-01-31T18:08:10.284Z,26.59
2019-01-31T18:10:20.122Z,26.64
2019-01-31T18:12:28.561Z,26.78
2019-01-31T18:14:36.055Z,26.85
2019-01-31T18:16:43.232Z,26.94
2019-01-31T18:18:50.419Z,26.99
2019-01-31T18:20:58.157Z,27.07
2019-01-31T18:23:06.167Z,27.12
2019-01-31T18:25:13.707Z,27.10
2019-01-31T18:27:21.844Z,26.82
2019-01-31T18:29:30.205Z,26.67
2019-01-31T18:31:44.520Z,26.60
2019-01-31T18:33:55.482Z,26.47
2019-01-31T18:36:05.674Z,26.33
2019-01-31T18:38:12.369Z,26.31
2019-01-31T18:40:21.693Z,26.46
2019-01-31T18:42:29.777Z,26.67
2019-01-31T18:44:37.570Z,26.80
2019-01-31T18:46:45.201Z,26.90
2019-01-31T18:48:53.240Z,27.02
2019-01-31T18:51:04.482Z,27.13
2019-01-31T18:53:11.757Z,27.19
2019-01-31T18:55:19.687Z,27.20
2019-01-31T18:57:26.886Z,27.15
2019-01-31T18:59:35.765Z,27.04
2019-01-31T19:01:43.297Z,26.89
2019-01-31T19:03:50.728Z,26.68
2019-01-31T19:05:58.237Z,26.52
2019-01-31T19:08:09.090Z,26.41
2019-01-31T19:10:15.806Z,26.32
2019-01-31T19:12:31.499Z,26.22
2019-01-31T19:14:38.970Z,26.20
2019-01-31T19:16:47.194Z,26.28
2019-01-31T19:18:54.415Z,26.42
2019-01-31T19:21:01.582Z,26.60
2019-01-31T19:23:10.236Z,26.70
2019-01-31T19:25:21.929Z,26.82
2019-01-31T19:27:29.350Z,26.85
2019-01-31T19:29:36.670Z,26.30
2019-01-31T19:31:44.194Z,26.86
2019-01-31T19:33:57.372Z,26.63
2019-01-31T19:36:05.269Z,26.39
2019-01-31T19:38:12.981Z,26.12
2019-01-31T19:40:23.092Z,25.88
2019-01-31T19:42:30.500Z,25.89
2019-01-31T19:44:38.299Z,25.77
2019-01-31T19:46:46.299Z,25.85
2019-01-31T19:48:53.738Z,25.95
2019-01-31T19:51:00.954Z,26.07
2019-01-31T19:53:08.690Z,26.18
2019-01-31T19:55:16.334Z,26.27
2019-01-31T19:57:25.249Z,26.34
2019-01-31T19:59:33.211Z,26.43
2019-01-31T20:01:40.370Z,26.43
2019-01-31T20:03:47.882Z,26.42
2019-01-31T20:05:55.325Z,26.25
2019-01-31T20:08:03.560Z,26.09
2019-01-31T20:10:12.200Z,25.96
2019-01-31T20:12:19.836Z,25.77
2019-01-31T20:14:27.063Z,25.56
2019-01-31T20:16:34.432Z,25.49
2019-01-31T20:18:41.901Z,25.53
2019-01-31T20:20:49.338Z,25.63
2019-01-31T20:22:57.652Z,25.67
2019-01-31T20:25:05.243Z,25.77
2019-01-31T20:27:13.104Z,25.87
2019-01-31T20:29:21.225Z,25.97
2019-01-31T20:31:29.364Z,26.07
2019-01-31T20:33:36.593Z,26.14
2019-01-31T20:35:43.679Z,26.30
2019-01-31T20:37:50.959Z,26.41
2019-01-31T20:39:58.994Z,26.43
2019-01-31T20:42:07.434Z,26.32
2019-01-31T20:44:20.025Z,26.19
2019-01-31T20:46:39.752Z,26.03
2019-01-31T20:48:44.087Z,25.94
2019-01-31T20:50:52.593Z,25.74
2019-01-31T20:53:00.760Z,25.56
2019-01-31T20:55:09.489Z,25.55
2019-01-31T20:57:17.409Z,25.56
2019-01-31T20:59:25.337Z,25.66
2019-01-31T21:01:32.672Z,25.72
2019-01-31T21:03:41.040Z,25.78
2019-01-31T21:05:48.518Z,25.86
2019-01-31T21:07:56.022Z,25.96
2019-01-31T21:10:05.338Z,26.06
2019-01-31T21:12:13.575Z,26.16
2019-01-31T21:14:20.751Z,26.22
2019-01-31T21:16:28.077Z,26.15
2019-01-31T21:18:35.509Z,26.05
2019-01-31T21:20:42.996Z,26.05
2019-01-31T21:22:50.620Z,25.90
2019-01-31T21:24:58.170Z,25.84
2019-01-31T21:27:07.913Z,25.69
2019-01-31T21:29:15.924Z,25.53
2019-01-31T21:31:23.270Z,25.43
2019-01-31T21:33:30.717Z,25.29
2019-01-31T21:35:38.222Z,25.23
2019-01-31T21:37:45.489Z,25.28
2019-01-31T21:39:52.927Z,25.37
2019-01-31T21:42:03.011Z,25.45
2019-01-31T21:44:10.667Z,25.55
2019-01-31T21:46:18.008Z,25.60
2019-01-31T21:48:25.496Z,25.71
2019-01-31T21:50:33.353Z,25.80
2019-01-31T21:52:40.822Z,25.96
2019-01-31T21:54:48.150Z,26.04
2019-01-31T21:56:56.200Z,26.12
2019-01-31T21:59:03.460Z,26.14
2019-01-31T22:01:10.976Z,26.03
2019-01-31T22:03:24.702Z,25.98
2019-01-31T22:05:31.556Z,25.84
2019-01-31T22:07:38.952Z,25.67
2019-01-31T22:09:46.178Z,25.57
2019-01-31T22:11:53.674Z,25.46
2019-01-31T22:14:01.131Z,25.25
2019-01-31T22:16:13.267Z,25.23
2019-01-31T22:18:20.625Z,25.22
2019-01-31T22:20:28.539Z,25.31
2019-01-31T22:22:37.192Z,25.41
2019-01-31T22:24:44.687Z,25.51
2019-01-31T22:26:51.998Z,25.63
2019-01-31T22:28:59.748Z,25.68
2019-01-31T22:31:07.539Z,25.79
2019-01-31T22:33:14.879Z,25.91
2019-01-31T22:35:22.386Z,26.00
2019-01-31T22:37:29.615Z,26.08
2019-01-31T22:39:37.195Z,26.11
2019-01-31T22:41:44.728Z,26.05
2019-01-31T22:43:52.733Z,25.95
2019-01-31T22:46:01.391Z,25.82
2019-01-31T22:48:09.363Z,25.68
2019-01-31T22:50:18.264Z,25.53
2019-01-31T22:52:25.506Z,25.37
2019-01-31T22:54:32.730Z,25.26
2019-01-31T22:56:40.822Z,25.22
2019-01-31T22:58:48.048Z,25.13
2019-01-31T23:01:36.134Z,25.04
2019-01-31T23:03:44.466Z,24.97
2019-01-31T23:05:52.629Z,24.83
2019-01-31T23:07:59.941Z,24.85
2019-01-31T23:10:08.158Z,25.01
2019-01-31T23:12:15.779Z,25.17
2019-01-31T23:14:22.878Z,25.29
2019-01-31T23:16:30.420Z,25.44
2019-01-31T23:18:38.011Z,25.53
2019-01-31T23:20:45.157Z,25.59
2019-01-31T23:22:52.496Z,25.67
2019-01-31T23:24:59.779Z,25.70
2019-01-31T23:27:06.930Z,25.76
2019-01-31T23:29:14.177Z,25.75
2019-01-31T23:31:21.626Z,25.67
2019-01-31T23:33:28.953Z,25.56
2019-01-31T23:35:36.333Z,25.44
2019-01-31T23:37:43.498Z,25.20
2019-01-31T23:39:50.839Z,25.17
2019-01-31T23:41:58.172Z,24.99
2019-01-31T23:44:06.326Z,24.90
2019-01-31T23:46:13.932Z,24.89
2019-01-31T23:48:21.134Z,25.02
2019-01-31T23:50:28.334Z,25.19
2019-01-31T23:52:35.564Z,25.34
2019-01-31T23:54:43.628Z,25.51
2019-01-31T23:56:51.942Z,25.70
2019-01-31T23:58:59.232Z,25.79
